sensor_id;sensor_type;location;lat;lon;timestamp;pressure;altitude;pressure_sealevel;temperature;humidity
16821;BME280;8527;49.740;6.604;2023-03-03T00:00:24;100132.38;;;0.81;82.46
16821;BME280;8527;49.740;6.604;2023-03-03T00:05:31;100137.03;;;0.76;82.99
16821;BME280;8527;49.740;6.604;2023-03-03T00:10:30;100136.69;;;0.67;82.51
16821;BME280;8527;49.740;6.604;2023-03-03T00:15:32;100140.59;;;0.60;81.89
16821;BME280;8527;49.740;6.604;2023-03-03T00:20:34;100139.19;;;0.54;84.21
16821;BME280;8527;49.740;6.604;2023-03-03T00:25:33;100142.41;;;0.45;83.02
16821;BME280;8527;49.740;6.604;2023-03-03T00:30:35;100137.91;;;0.47;84.17
16821;BME280;8527;49.740;6.604;2023-03-03T00:35:33;100142.88;;;0.52;83.01
16821;BME280;8527;49.740;6.604;2023-03-03T00:40:35;100150.66;;;0.37;82.17
16821;BME280;8527;49.740;6.604;2023-03-03T00:45:45;100152.47;;;0.37;82.48
16821;BME280;8527;49.740;6.604;2023-03-03T00:50:49;100164.19;;;0.30;82.20
16821;BME280;8527;49.740;6.604;2023-03-03T00:55:49;100172.84;;;0.16;84.30
16821;BME280;8527;49.740;6.604;2023-03-03T01:00:52;100163.63;;;0.10;83.46
16821;BME280;8527;49.740;6.604;2023-03-03T01:05:54;100170.41;;;0.12;83.32
16821;BME280;8527;49.740;6.604;2023-03-03T01:10:54;100168.53;;;0.00;83.25
16821;BME280;8527;49.740;6.604;2023-03-03T01:15:59;100172.06;;;-0.01;83.02
16821;BME280;8527;49.740;6.604;2023-03-03T01:21:01;100171.31;;;-0.03;84.14
16821;BME280;8527;49.740;6.604;2023-03-03T01:26:05;100173.34;;;-0.08;83.97
16821;BME280;8527;49.740;6.604;2023-03-03T01:31:06;100178.53;;;-0.23;82.57
16821;BME280;8527;49.740;6.604;2023-03-03T01:36:06;100170.44;;;-0.18;83.96
16821;BME280;8527;49.740;6.604;2023-03-03T01:41:05;100163.66;;;-0.37;83.79
16821;BME280;8527;49.740;6.604;2023-03-03T01:46:28;100163.22;;;-0.29;85.34
16821;BME280;8527;49.740;6.604;2023-03-03T01:51:33;100164.97;;;-0.44;85.74
16821;BME280;8527;49.740;6.604;2023-03-03T01:56:33;100164.53;;;-0.36;84.92
16821;BME280;8527;49.740;6.604;2023-03-03T02:01:34;100163.00;;;-0.40;84.57
16821;BME280;8527;49.740;6.604;2023-03-03T02:06:53;100166.03;;;-0.48;85.06
16821;BME280;8527;49.740;6.604;2023-03-03T02:12:07;100154.47;;;-0.59;85.04
16821;BME280;8527;49.740;6.604;2023-03-03T02:17:11;100163.06;;;-0.57;84.60
16821;BME280;8527;49.740;6.604;2023-03-03T02:22:14;100149.78;;;-0.68;85.04
16821;BME280;8527;49.740;6.604;2023-03-03T02:27:17;100149.69;;;-0.66;84.92
16821;BME280;8527;49.740;6.604;2023-03-03T02:32:15;100145.91;;;-0.77;85.13
16821;BME280;8527;49.740;6.604;2023-03-03T02:37:17;100153.06;;;-0.80;85.97
16821;BME280;8527;49.740;6.604;2023-03-03T02:42:21;100146.69;;;-0.75;85.95
16821;BME280;8527;49.740;6.604;2023-03-03T02:47:20;100144.75;;;-0.87;85.16
16821;BME280;8527;49.740;6.604;2023-03-03T02:52:19;100147.25;;;-0.86;85.75
16821;BME280;8527;49.740;6.604;2023-03-03T02:57:25;100148.13;;;-0.85;86.34
16821;BME280;8527;49.740;6.604;2023-03-03T03:02:30;100156.19;;;-0.90;85.37
16821;BME280;8527;49.740;6.604;2023-03-03T03:07:28;100143.91;;;-1.04;85.35
16821;BME280;8527;49.740;6.604;2023-03-03T03:12:29;100151.81;;;-1.05;87.14
16821;BME280;8527;49.740;6.604;2023-03-03T03:17:28;100152.88;;;-1.09;86.25
16821;BME280;8527;49.740;6.604;2023-03-03T03:22:26;100157.44;;;-1.13;86.71
16821;BME280;8527;49.740;6.604;2023-03-03T03:27:34;100154.25;;;-1.18;88.11
16821;BME280;8527;49.740;6.604;2023-03-03T03:32:44;100153.00;;;-1.11;87.38
16821;BME280;8527;49.740;6.604;2023-03-03T03:37:42;100160.63;;;-1.24;86.52
16821;BME280;8527;49.740;6.604;2023-03-03T03:42:44;100163.69;;;-1.33;87.21
16821;BME280;8527;49.740;6.604;2023-03-03T03:47:45;100171.94;;;-1.25;85.99
16821;BME280;8527;49.740;6.604;2023-03-03T03:52:43;100162.88;;;-1.34;86.46
16821;BME280;8527;49.740;6.604;2023-03-03T03:57:44;100168.56;;;-1.43;86.80
16821;BME280;8527;49.740;6.604;2023-03-03T04:02:43;100164.22;;;-1.43;87.09
16821;BME280;8527;49.740;6.604;2023-03-03T04:07:41;100168.50;;;-1.42;87.72
16821;BME280;8527;49.740;6.604;2023-03-03T04:12:40;100177.28;;;-1.44;87.61
16821;BME280;8527;49.740;6.604;2023-03-03T04:17:41;100169.56;;;-1.46;87.52
16821;BME280;8527;49.740;6.604;2023-03-03T04:22:42;100175.31;;;-1.57;87.95
16821;BME280;8527;49.740;6.604;2023-03-03T04:27:41;100176.72;;;-1.67;88.70
16821;BME280;8527;49.740;6.604;2023-03-03T04:32:44;100176.25;;;-1.58;90.51
16821;BME280;8527;49.740;6.604;2023-03-03T04:37:44;100170.13;;;-1.57;91.29
16821;BME280;8527;49.740;6.604;2023-03-03T04:42:45;100184.22;;;-1.61;91.33
16821;BME280;8527;49.740;6.604;2023-03-03T04:47:52;100177.47;;;-1.65;91.89
16821;BME280;8527;49.740;6.604;2023-03-03T04:52:51;100185.16;;;-1.79;91.79
16821;BME280;8527;49.740;6.604;2023-03-03T04:57:49;100185.91;;;-1.77;93.02
16821;BME280;8527;49.740;6.604;2023-03-03T05:02:48;100192.13;;;-1.80;90.85
16821;BME280;8527;49.740;6.604;2023-03-03T05:07:49;100199.16;;;-1.82;90.48
16821;BME280;8527;49.740;6.604;2023-03-03T05:12:48;100204.97;;;-1.77;90.50
16821;BME280;8527;49.740;6.604;2023-03-03T05:17:49;100204.38;;;-1.82;91.07
16821;BME280;8527;49.740;6.604;2023-03-03T05:23:03;100198.31;;;-1.82;91.95
16821;BME280;8527;49.740;6.604;2023-03-03T05:28:01;100202.00;;;-1.87;93.41
16821;BME280;8527;49.740;6.604;2023-03-03T05:33:00;100200.44;;;-1.91;92.01
16821;BME280;8527;49.740;6.604;2023-03-03T05:38:01;100203.66;;;-2.03;92.14
16821;BME280;8527;49.740;6.604;2023-03-03T05:42:59;100206.66;;;-1.93;93.08
16821;BME280;8527;49.740;6.604;2023-03-03T05:48:00;100198.63;;;-1.89;93.87
16821;BME280;8527;49.740;6.604;2023-03-03T05:53:02;100201.91;;;-2.03;94.86
16821;BME280;8527;49.740;6.604;2023-03-03T05:58:04;100216.22;;;-1.94;95.18
16821;BME280;8527;49.740;6.604;2023-03-03T06:03:02;100225.91;;;-1.98;95.52
16821;BME280;8527;49.740;6.604;2023-03-03T06:08:04;100223.84;;;-1.91;95.67
16821;BME280;8527;49.740;6.604;2023-03-03T06:13:02;100220.34;;;-1.90;94.76
16821;BME280;8527;49.740;6.604;2023-03-03T06:18:03;100233.50;;;-1.93;94.81
16821;BME280;8527;49.740;6.604;2023-03-03T06:23:05;100235.72;;;-2.03;94.67
16821;BME280;8527;49.740;6.604;2023-03-03T06:28:04;100233.66;;;-1.96;94.99
16821;BME280;8527;49.740;6.604;2023-03-03T06:33:03;100242.84;;;-1.89;94.01
16821;BME280;8527;49.740;6.604;2023-03-03T06:38:01;100243.88;;;-1.93;93.16
16821;BME280;8527;49.740;6.604;2023-03-03T06:43:03;100242.69;;;-1.86;92.59
16821;BME280;8527;49.740;6.604;2023-03-03T06:48:01;100245.72;;;-1.77;92.19
16821;BME280;8527;49.740;6.604;2023-03-03T06:53:06;100256.44;;;-1.66;91.05
16821;BME280;8527;49.740;6.604;2023-03-03T06:58:12;100270.06;;;-1.61;92.94
16821;BME280;8527;49.740;6.604;2023-03-03T07:03:14;100279.41;;;-1.57;93.73
16821;BME280;8527;49.740;6.604;2023-03-03T07:08:14;100281.41;;;-1.62;94.58
16821;BME280;8527;49.740;6.604;2023-03-03T07:13:21;100291.41;;;-1.54;94.97
16821;BME280;8527;49.740;6.604;2023-03-03T07:18:38;100283.91;;;-1.43;94.95
16821;BME280;8527;49.740;6.604;2023-03-03T07:23:38;100292.78;;;-1.29;94.31
16821;BME280;8527;49.740;6.604;2023-03-03T07:28:43;100289.28;;;-0.78;92.52
16821;BME280;8527;49.740;6.604;2023-03-03T07:33:43;100301.41;;;-0.29;90.44
16821;BME280;8527;49.740;6.604;2023-03-03T07:38:48;100309.78;;;0.08;88.76
16821;BME280;8527;49.740;6.604;2023-03-03T07:43:53;100306.13;;;0.27;86.48
16821;BME280;8527;49.740;6.604;2023-03-03T07:48:53;100319.41;;;0.38;86.05
16821;BME280;8527;49.740;6.604;2023-03-03T07:53:53;100331.53;;;0.84;84.82
16821;BME280;8527;49.740;6.604;2023-03-03T07:58:55;100337.03;;;1.38;82.82
16821;BME280;8527;49.740;6.604;2023-03-03T08:03:55;100344.63;;;1.28;82.39
16821;BME280;8527;49.740;6.604;2023-03-03T08:08:53;100347.06;;;1.46;82.07
16821;BME280;8527;49.740;6.604;2023-03-03T08:13:55;100349.25;;;2.08;80.76
16821;BME280;8527;49.740;6.604;2023-03-03T08:18:55;100347.44;;;2.36;79.72
16821;BME280;8527;49.740;6.604;2023-03-03T08:23:55;100347.00;;;2.70;78.08
16821;BME280;8527;49.740;6.604;2023-03-03T08:28:58;100342.16;;;2.64;77.96
16821;BME280;8527;49.740;6.604;2023-03-03T08:34:04;100350.19;;;2.35;78.85
16821;BME280;8527;49.740;6.604;2023-03-03T08:39:05;100361.56;;;2.34;79.18
16821;BME280;8527;49.740;6.604;2023-03-03T08:44:07;100364.81;;;2.65;78.87
16821;BME280;8527;49.740;6.604;2023-03-03T08:49:05;100369.66;;;2.84;79.03
16821;BME280;8527;49.740;6.604;2023-03-03T08:54:04;100380.78;;;3.40;77.39
16821;BME280;8527;49.740;6.604;2023-03-03T08:59:11;100377.81;;;3.70;74.99
16821;BME280;8527;49.740;6.604;2023-03-03T09:04:10;100377.91;;;3.69;75.62
16821;BME280;8527;49.740;6.604;2023-03-03T09:09:09;100378.25;;;4.26;74.09
16821;BME280;8527;49.740;6.604;2023-03-03T09:14:13;100390.41;;;4.02;75.00
16821;BME280;8527;49.740;6.604;2023-03-03T09:19:20;100399.47;;;3.85;73.82
16821;BME280;8527;49.740;6.604;2023-03-03T09:24:24;100387.28;;;3.97;73.61
16821;BME280;8527;49.740;6.604;2023-03-03T09:29:27;100379.88;;;4.75;72.94
16821;BME280;8527;49.740;6.604;2023-03-03T09:34:36;100392.81;;;4.54;72.83
16821;BME280;8527;49.740;6.604;2023-03-03T09:39:39;100412.19;;;4.64;72.90
16821;BME280;8527;49.740;6.604;2023-03-03T09:44:58;100407.38;;;4.47;72.89
16821;BME280;8527;49.740;6.604;2023-03-03T09:50:09;100404.88;;;4.08;74.68
16821;BME280;8527;49.740;6.604;2023-03-03T09:55:22;100389.75;;;4.60;73.85
16821;BME280;8527;49.740;6.604;2023-03-03T10:00:36;100398.41;;;4.01;75.83
16821;BME280;8527;49.740;6.604;2023-03-03T10:05:45;100389.34;;;4.29;74.10
16821;BME280;8527;49.740;6.604;2023-03-03T10:11:08;100393.56;;;4.68;73.03
16821;BME280;8527;49.740;6.604;2023-03-03T10:16:31;100402.47;;;4.78;73.02
16821;BME280;8527;49.740;6.604;2023-03-03T10:21:35;100400.06;;;4.75;72.03
16821;BME280;8527;49.740;6.604;2023-03-03T10:27:00;100418.34;;;4.76;72.29
16821;BME280;8527;49.740;6.604;2023-03-03T10:32:26;100407.69;;;5.02;72.59
16821;BME280;8527;49.740;6.604;2023-03-03T10:37:37;100407.00;;;5.46;70.56
16821;BME280;8527;49.740;6.604;2023-03-03T10:42:48;100406.91;;;5.59;69.38
16821;BME280;8527;49.740;6.604;2023-03-03T10:48:04;100422.03;;;5.10;70.84
16821;BME280;8527;49.740;6.604;2023-03-03T10:53:17;100423.50;;;5.37;70.48
16821;BME280;8527;49.740;6.604;2023-03-03T10:58:31;100419.56;;;5.31;70.88
16821;BME280;8527;49.740;6.604;2023-03-03T11:04:06;100424.69;;;5.32;70.83
16821;BME280;8527;49.740;6.604;2023-03-03T11:09:16;100420.75;;;5.27;71.07
16821;BME280;8527;49.740;6.604;2023-03-03T11:14:23;100407.94;;;5.22;69.83
16821;BME280;8527;49.740;6.604;2023-03-03T11:19:38;100403.91;;;5.29;69.93
16821;BME280;8527;49.740;6.604;2023-03-03T11:24:44;100402.81;;;5.66;69.02
16821;BME280;8527;49.740;6.604;2023-03-03T11:30:00;100391.94;;;5.25;69.68
16821;BME280;8527;49.740;6.604;2023-03-03T11:35:12;100393.13;;;5.55;69.89
16821;BME280;8527;49.740;6.604;2023-03-03T11:40:18;100398.50;;;5.54;68.83
16821;BME280;8527;49.740;6.604;2023-03-03T11:45:19;100386.75;;;5.92;66.52
16821;BME280;8527;49.740;6.604;2023-03-03T11:50:25;100387.78;;;5.57;66.76
16821;BME280;8527;49.740;6.604;2023-03-03T11:55:30;100369.81;;;6.29;65.37
16821;BME280;8527;49.740;6.604;2023-03-03T12:00:36;100369.34;;;6.56;63.95
16821;BME280;8527;49.740;6.604;2023-03-03T12:05:47;100359.56;;;6.47;64.32
16821;BME280;8527;49.740;6.604;2023-03-03T12:10:51;100356.88;;;6.58;62.86
16821;BME280;8527;49.740;6.604;2023-03-03T12:16:00;100353.34;;;6.48;62.43
16821;BME280;8527;49.740;6.604;2023-03-03T12:21:24;100357.66;;;6.49;61.87
16821;BME280;8527;49.740;6.604;2023-03-03T12:26:31;100346.03;;;6.73;62.13
16821;BME280;8527;49.740;6.604;2023-03-03T12:31:39;100340.06;;;6.71;61.31
16821;BME280;8527;49.740;6.604;2023-03-03T12:37:01;100335.84;;;6.89;60.92
16821;BME280;8527;49.740;6.604;2023-03-03T12:42:09;100342.75;;;7.12;60.27
16821;BME280;8527;49.740;6.604;2023-03-03T12:47:14;100338.00;;;7.37;58.95
16821;BME280;8527;49.740;6.604;2023-03-03T12:52:23;100336.75;;;7.00;58.75
16821;BME280;8527;49.740;6.604;2023-03-03T12:57:34;100332.13;;;7.23;58.43
16821;BME280;8527;49.740;6.604;2023-03-03T13:02:46;100342.59;;;7.35;57.40
16821;BME280;8527;49.740;6.604;2023-03-03T13:08:01;100333.63;;;7.16;58.79
16821;BME280;8527;49.740;6.604;2023-03-03T13:13:11;100331.28;;;7.54;56.01
16821;BME280;8527;49.740;6.604;2023-03-03T13:18:28;100312.69;;;7.65;56.16
16821;BME280;8527;49.740;6.604;2023-03-03T13:23:46;100315.88;;;7.59;56.47
16821;BME280;8527;49.740;6.604;2023-03-03T13:28:56;100309.34;;;7.73;55.52
16821;BME280;8527;49.740;6.604;2023-03-03T13:33:57;100297.69;;;7.66;56.58
16821;BME280;8527;49.740;6.604;2023-03-03T13:39:00;100297.97;;;7.82;56.13
16821;BME280;8527;49.740;6.604;2023-03-03T13:44:03;100292.41;;;7.76;55.05
16821;BME280;8527;49.740;6.604;2023-03-03T13:49:17;100272.81;;;7.98;54.18
16821;BME280;8527;49.740;6.604;2023-03-03T13:54:38;100277.41;;;7.96;55.88
16821;BME280;8527;49.740;6.604;2023-03-03T13:59:51;100267.69;;;8.06;57.06
16821;BME280;8527;49.740;6.604;2023-03-03T14:04:54;100259.75;;;8.16;56.14
16821;BME280;8527;49.740;6.604;2023-03-03T14:10:09;100250.97;;;8.25;55.13
16821;BME280;8527;49.740;6.604;2023-03-03T14:15:20;100258.94;;;8.15;53.46
16821;BME280;8527;49.740;6.604;2023-03-03T14:20:22;100245.97;;;8.12;50.78
16821;BME280;8527;49.740;6.604;2023-03-03T14:25:24;100248.03;;;8.38;50.33
16821;BME280;8527;49.740;6.604;2023-03-03T14:30:31;100249.44;;;8.23;50.65
16821;BME280;8527;49.740;6.604;2023-03-03T14:35:32;100242.38;;;8.23;51.15
16821;BME280;8527;49.740;6.604;2023-03-03T14:40:35;100244.75;;;8.16;50.98
16821;BME280;8527;49.740;6.604;2023-03-03T14:45:38;100244.03;;;8.05;52.22
16821;BME280;8527;49.740;6.604;2023-03-03T14:50:42;100239.59;;;8.05;51.50
16821;BME280;8527;49.740;6.604;2023-03-03T14:55:45;100240.13;;;8.09;51.49
16821;BME280;8527;49.740;6.604;2023-03-03T15:00:44;100239.84;;;8.02;51.78
16821;BME280;8527;49.740;6.604;2023-03-03T15:05:48;100233.63;;;8.03;52.14
16821;BME280;8527;49.740;6.604;2023-03-03T15:10:49;100241.41;;;7.95;53.19
16821;BME280;8527;49.740;6.604;2023-03-03T15:16:02;100229.84;;;7.96;52.66
16821;BME280;8527;49.740;6.604;2023-03-03T15:21:07;100233.59;;;7.93;51.13
16821;BME280;8527;49.740;6.604;2023-03-03T15:26:20;100252.50;;;7.79;51.53
16821;BME280;8527;49.740;6.604;2023-03-03T15:31:30;100249.06;;;7.78;52.60
16821;BME280;8527;49.740;6.604;2023-03-03T15:36:39;100246.81;;;7.73;54.10
16821;BME280;8527;49.740;6.604;2023-03-03T15:41:44;100243.47;;;7.71;53.46
16821;BME280;8527;49.740;6.604;2023-03-03T15:47:09;100242.88;;;7.58;53.35
16821;BME280;8527;49.740;6.604;2023-03-03T15:52:23;100251.94;;;7.55;54.21
16821;BME280;8527;49.740;6.604;2023-03-03T15:57:36;100249.69;;;7.51;54.97
16821;BME280;8527;49.740;6.604;2023-03-03T16:02:46;100259.13;;;7.43;55.18
16821;BME280;8527;49.740;6.604;2023-03-03T16:07:57;100260.66;;;7.36;55.71
16821;BME280;8527;49.740;6.604;2023-03-03T16:13:15;100272.13;;;7.25;56.53
16821;BME280;8527;49.740;6.604;2023-03-03T16:18:26;100279.19;;;7.15;56.44
16821;BME280;8527;49.740;6.604;2023-03-03T16:23:36;100288.16;;;7.02;57.00
16821;BME280;8527;49.740;6.604;2023-03-03T16:34:24;100284.56;;;6.82;60.19
16821;BME280;8527;49.740;6.604;2023-03-03T16:39:36;100299.84;;;6.79;60.79
16821;BME280;8527;49.740;6.604;2023-03-03T16:44:45;100301.59;;;6.68;61.29
16821;BME280;8527;49.740;6.604;2023-03-03T16:49:54;100304.97;;;6.59;61.65
16821;BME280;8527;49.740;6.604;2023-03-03T16:55:04;100323.97;;;6.53;61.93
16821;BME280;8527;49.740;6.604;2023-03-03T17:00:08;100324.84;;;6.42;62.49
16821;BME280;8527;49.740;6.604;2023-03-03T17:05:19;100329.78;;;6.35;62.91
16821;BME280;8527;49.740;6.604;2023-03-03T17:10:25;100332.00;;;6.18;63.45
16821;BME280;8527;49.740;6.604;2023-03-03T17:15:35;100336.09;;;6.11;63.63
16821;BME280;8527;49.740;6.604;2023-03-03T17:20:45;100348.34;;;6.01;64.03
16821;BME280;8527;49.740;6.604;2023-03-03T17:25:49;100350.22;;;5.99;64.07
16821;BME280;8527;49.740;6.604;2023-03-03T17:30:57;100364.28;;;5.88;64.36
16821;BME280;8527;49.740;6.604;2023-03-03T17:36:19;100366.53;;;5.93;64.90
16821;BME280;8527;49.740;6.604;2023-03-03T17:41:25;100374.56;;;5.80;65.17
16821;BME280;8527;49.740;6.604;2023-03-03T17:46:34;100381.06;;;5.64;66.30
16821;BME280;8527;49.740;6.604;2023-03-03T17:52:05;100394.09;;;5.43;68.06
16821;BME280;8527;49.740;6.604;2023-03-03T17:57:17;100407.13;;;5.21;69.11
16821;BME280;8527;49.740;6.604;2023-03-03T18:02:46;100410.31;;;5.02;69.83
16821;BME280;8527;49.740;6.604;2023-03-03T18:08:03;100412.38;;;4.74;70.25
16821;BME280;8527;49.740;6.604;2023-03-03T18:13:17;100428.88;;;4.76;70.46
16821;BME280;8527;49.740;6.604;2023-03-03T18:18:34;100426.44;;;4.73;70.93
16821;BME280;8527;49.740;6.604;2023-03-03T18:23:44;100431.69;;;4.62;70.03
16821;BME280;8527;49.740;6.604;2023-03-03T18:28:45;100437.66;;;4.40;71.46
16821;BME280;8527;49.740;6.604;2023-03-03T18:33:59;100441.38;;;4.24;72.06
16821;BME280;8527;49.740;6.604;2023-03-03T18:39:02;100446.75;;;4.22;73.11
16821;BME280;8527;49.740;6.604;2023-03-03T18:44:01;100443.94;;;4.13;73.44
16821;BME280;8527;49.740;6.604;2023-03-03T19:00:26;100465.31;;;3.95;74.92
16821;BME280;8527;49.740;6.604;2023-03-03T19:05:36;100468.03;;;3.93;75.36
16821;BME280;8527;49.740;6.604;2023-03-03T19:10:57;100478.34;;;3.84;75.51
16821;BME280;8527;49.740;6.604;2023-03-03T19:15:57;100478.88;;;3.76;75.54
16821;BME280;8527;49.740;6.604;2023-03-03T19:20:58;100487.88;;;3.72;76.03
16821;BME280;8527;49.740;6.604;2023-03-03T19:31:29;100486.34;;;3.43;76.81
16821;BME280;8527;49.740;6.604;2023-03-03T19:36:51;100494.50;;;3.38;76.89
16821;BME280;8527;49.740;6.604;2023-03-03T19:42:01;100503.06;;;3.28;76.79
16821;BME280;8527;49.740;6.604;2023-03-03T19:47:08;100510.72;;;3.18;77.22
16821;BME280;8527;49.740;6.604;2023-03-03T19:52:18;100516.56;;;3.08;77.30
16821;BME280;8527;49.740;6.604;2023-03-03T19:57:32;100520.03;;;2.81;78.16
16821;BME280;8527;49.740;6.604;2023-03-03T20:02:44;100521.56;;;2.86;77.62
16821;BME280;8527;49.740;6.604;2023-03-03T20:08:04;100525.78;;;2.74;77.76
16821;BME280;8527;49.740;6.604;2023-03-03T20:13:08;100532.25;;;2.68;77.75
16821;BME280;8527;49.740;6.604;2023-03-03T20:23:47;100543.63;;;2.39;78.07
16821;BME280;8527;49.740;6.604;2023-03-03T20:29:24;100550.38;;;2.44;77.60
16821;BME280;8527;49.740;6.604;2023-03-03T20:34:36;100550.56;;;2.26;79.12
16821;BME280;8527;49.740;6.604;2023-03-03T20:39:49;100552.63;;;2.21;78.67
16821;BME280;8527;49.740;6.604;2023-03-03T20:45:01;100557.59;;;1.96;79.26
16821;BME280;8527;49.740;6.604;2023-03-03T20:50:17;100559.75;;;1.90;79.96
16821;BME280;8527;49.740;6.604;2023-03-03T20:55:23;100564.19;;;1.73;78.69
16821;BME280;8527;49.740;6.604;2023-03-03T21:00:30;100567.53;;;1.61;80.22
16821;BME280;8527;49.740;6.604;2023-03-03T21:05:31;100580.84;;;1.42;80.02
16821;BME280;8527;49.740;6.604;2023-03-03T21:10:34;100582.06;;;1.50;79.27
16821;BME280;8527;49.740;6.604;2023-03-03T21:15:33;100583.44;;;1.42;79.99
16821;BME280;8527;49.740;6.604;2023-03-03T21:20:35;100584.91;;;1.31;79.52
16821;BME280;8527;49.740;6.604;2023-03-03T21:25:48;100582.16;;;1.18;79.84
16821;BME280;8527;49.740;6.604;2023-03-03T21:36:17;100586.13;;;1.09;80.14
16821;BME280;8527;49.740;6.604;2023-03-03T21:41:17;100593.56;;;1.01;80.21
16821;BME280;8527;49.740;6.604;2023-03-03T21:46:19;100596.34;;;0.98;79.45
16821;BME280;8527;49.740;6.604;2023-03-03T21:51:20;100595.00;;;0.75;79.86
16821;BME280;8527;49.740;6.604;2023-03-03T21:56:19;100597.25;;;0.65;81.29
16821;BME280;8527;49.740;6.604;2023-03-03T22:01:20;100606.13;;;0.78;80.22
16821;BME280;8527;49.740;6.604;2023-03-03T22:06:21;100601.31;;;0.70;81.02
16821;BME280;8527;49.740;6.604;2023-03-03T22:11:20;100600.13;;;0.76;78.83
16821;BME280;8527;49.740;6.604;2023-03-03T22:16:19;100610.06;;;0.69;78.63
16821;BME280;8527;49.740;6.604;2023-03-03T22:21:17;100606.81;;;0.32;80.04
16821;BME280;8527;49.740;6.604;2023-03-03T22:26:21;100614.06;;;0.27;81.59
16821;BME280;8527;49.740;6.604;2023-03-03T22:31:21;100615.13;;;0.23;80.80
16821;BME280;8527;49.740;6.604;2023-03-03T22:36:20;100617.97;;;0.18;81.83
16821;BME280;8527;49.740;6.604;2023-03-03T22:41:21;100616.16;;;0.03;82.29
16821;BME280;8527;49.740;6.604;2023-03-03T22:46:19;100628.06;;;-0.09;80.78
16821;BME280;8527;49.740;6.604;2023-03-03T22:51:20;100629.97;;;0.05;81.99
16821;BME280;8527;49.740;6.604;2023-03-03T22:56:23;100625.84;;;0.01;81.28
16821;BME280;8527;49.740;6.604;2023-03-03T23:01:21;100622.63;;;-0.05;82.02
16821;BME280;8527;49.740;6.604;2023-03-03T23:06:22;100627.84;;;-0.22;83.87
16821;BME280;8527;49.740;6.604;2023-03-03T23:11:23;100627.47;;;-0.32;82.16
16821;BME280;8527;49.740;6.604;2023-03-03T23:16:24;100627.53;;;-0.34;81.11
16821;BME280;8527;49.740;6.604;2023-03-03T23:21:22;100631.81;;;-0.50;83.74
16821;BME280;8527;49.740;6.604;2023-03-03T23:26:24;100627.81;;;-0.58;83.29
16821;BME280;8527;49.740;6.604;2023-03-03T23:31:25;100630.88;;;-0.67;83.04
16821;BME280;8527;49.740;6.604;2023-03-03T23:36:25;100631.88;;;-0.69;82.75
16821;BME280;8527;49.740;6.604;2023-03-03T23:41:26;100631.16;;;-0.73;82.06
16821;BME280;8527;49.740;6.604;2023-03-03T23:46:24;100637.06;;;-0.87;83.75
16821;BME280;8527;49.740;6.604;2023-03-03T23:51:22;100638.09;;;-0.91;84.06
16821;BME280;8527;49.740;6.604;2023-03-03T23:56:21;100644.22;;;-0.92;83.47
